createdAt,value
2018-09-20T00:00:55.282Z,70.90
2018-09-20T00:03:58.795Z,71.26
2018-09-20T00:07:02.461Z,71.94
2018-09-20T00:10:06.345Z,70.82
2018-09-20T00:13:10.020Z,70.89
2018-09-20T00:16:13.756Z,71.69
2018-09-20T00:19:17.597Z,70.99
2018-09-20T00:22:21.167Z,70.49
2018-09-20T00:25:24.690Z,71.05
2018-09-20T00:28:28.455Z,70.95
2018-09-20T00:31:32.100Z,71.04
2018-09-20T00:34:35.675Z,71.71
2018-09-20T00:37:39.260Z,71.43
2018-09-20T00:40:42.915Z,70.98
2018-09-20T00:43:46.533Z,71.83
2018-09-20T00:46:50.029Z,72.17
2018-09-20T00:49:53.654Z,71.56
2018-09-20T00:52:57.327Z,70.66
2018-09-20T00:56:00.800Z,71.62
2018-09-20T00:59:04.456Z,72.36
2018-09-20T01:02:08.009Z,73.49
2018-09-20T01:05:11.615Z,72.85
2018-09-20T01:08:15.176Z,73.40
2018-09-20T01:11:18.823Z,74.51
2018-09-20T01:14:22.399Z,74.10
2018-09-20T01:17:25.943Z,72.46
2018-09-20T01:20:29.580Z,73.10
2018-09-20T01:23:33.200Z,74.04
2018-09-20T01:26:36.733Z,74.16
2018-09-20T01:29:40.249Z,74.49
2018-09-20T01:32:43.915Z,74.52
2018-09-20T01:35:47.486Z,73.98
2018-09-20T01:38:50.979Z,73.40
2018-09-20T01:41:54.530Z,72.78
2018-09-20T01:44:58.129Z,71.90
2018-09-20T01:48:01.729Z,72.40
2018-09-20T01:51:05.395Z,72.30
2018-09-20T01:54:08.989Z,73.06
2018-09-20T01:57:12.565Z,72.45
2018-09-20T02:00:16.130Z,72.53
2018-09-20T02:03:19.843Z,73.43
2018-09-20T02:06:23.482Z,73.04
2018-09-20T02:09:26.999Z,73.12
2018-09-20T02:12:30.562Z,73.68
2018-09-20T02:15:34.156Z,73.11
2018-09-20T02:18:37.690Z,73.26
2018-09-20T02:21:41.306Z,73.76
2018-09-20T02:24:44.844Z,74.57
2018-09-20T02:27:48.361Z,75.13
2018-09-20T02:30:51.905Z,75.71
2018-09-20T02:33:55.518Z,75.81
2018-09-20T02:36:59.015Z,76.77
2018-09-20T02:40:02.652Z,76.98
2018-09-20T02:43:06.281Z,75.58
2018-09-20T02:46:09.797Z,74.91
2018-09-20T02:49:13.356Z,75.13
2018-09-20T02:52:17.089Z,75.52
2018-09-20T02:55:20.713Z,75.62
2018-09-20T02:58:24.384Z,74.73
2018-09-20T03:01:28.040Z,75.23
2018-09-20T03:04:31.581Z,74.75
2018-09-20T03:07:35.154Z,74.68
2018-09-20T03:10:38.761Z,74.34
2018-09-20T03:13:42.421Z,74.59
2018-09-20T03:16:45.927Z,74.34
2018-09-20T03:19:49.491Z,75.42
2018-09-20T03:22:52.962Z,75.48
2018-09-20T03:25:56.563Z,74.97
2018-09-20T03:29:00.099Z,74.36
2018-09-20T03:32:03.645Z,75.75
2018-09-20T03:35:07.327Z,76.82
2018-09-20T03:38:10.965Z,77.29
2018-09-20T03:41:14.497Z,77.10
2018-09-20T03:44:18.119Z,76.82
2018-09-20T03:47:21.613Z,77.25
2018-09-20T03:50:25.107Z,76.04
2018-09-20T03:53:28.744Z,76.52
2018-09-20T03:56:32.305Z,75.73
2018-09-20T03:59:35.884Z,75.30
2018-09-20T04:02:39.416Z,75.13
2018-09-20T04:05:43.024Z,75.42
2018-09-20T04:08:46.598Z,76.22
2018-09-20T04:11:50.161Z,76.81
2018-09-20T04:14:53.830Z,76.71
2018-09-20T04:17:57.324Z,77.06
2018-09-20T04:21:00.852Z,77.67
2018-09-20T04:24:05.703Z,76.44
2018-09-20T04:27:09.200Z,76.13
2018-09-20T04:30:12.730Z,75.36
2018-09-20T04:33:16.301Z,76.69
2018-09-20T04:36:19.997Z,77.10
2018-09-20T04:39:23.557Z,76.87
2018-09-20T04:42:27.161Z,77.81
2018-09-20T04:45:30.685Z,78.01
2018-09-20T04:48:34.401Z,77.47
2018-09-20T04:51:37.935Z,77.61
2018-09-20T04:54:41.517Z,78.46
2018-09-20T04:57:45.101Z,78.55
2018-09-20T05:00:48.631Z,77.96
2018-09-20T05:03:52.175Z,78.42
2018-09-20T05:06:55.744Z,78.78
2018-09-20T05:09:59.227Z,79.23
2018-09-20T05:13:02.834Z,79.54
2018-09-20T05:16:06.445Z,79.42
2018-09-20T05:19:09.956Z,78.75
2018-09-20T05:22:13.596Z,77.65
2018-09-20T05:25:17.275Z,76.33
2018-09-20T05:28:20.937Z,75.65
2018-09-20T05:31:24.519Z,75.07
2018-09-20T05:34:28.176Z,74.91
2018-09-20T05:37:31.981Z,75.20
2018-09-20T05:40:35.475Z,74.34
2018-09-20T05:43:39.124Z,74.57
2018-09-20T05:46:43.317Z,72.28
2018-09-20T05:49:46.867Z,70.53
2018-09-20T05:52:50.466Z,68.97
2018-09-20T05:55:54.059Z,66.35
2018-09-20T05:58:57.544Z,67.09
2018-09-20T06:02:02.181Z,67.73
2018-09-20T06:05:06.066Z,68.53
2018-09-20T06:08:09.585Z,68.19
2018-09-20T06:11:13.127Z,66.09
2018-09-20T06:14:16.666Z,65.54
2018-09-20T06:17:20.149Z,65.83
2018-09-20T06:20:23.676Z,64.93
2018-09-20T06:23:27.275Z,65.90
2018-09-20T06:26:30.766Z,66.60
2018-09-20T06:29:34.381Z,64.77
2018-09-20T06:32:38.081Z,64.74
2018-09-20T06:35:41.685Z,65.52
2018-09-20T06:38:45.416Z,66.12
2018-09-20T06:41:48.979Z,65.54
2018-09-20T06:44:52.550Z,65.61
2018-09-20T06:47:56.080Z,64.93
2018-09-20T06:50:59.637Z,64.36
2018-09-20T06:54:03.404Z,65.00
2018-09-20T06:57:06.890Z,64.93
2018-09-20T07:00:10.437Z,64.85
2018-09-20T07:03:13.992Z,65.02
2018-09-20T07:06:17.583Z,65.19
2018-09-20T07:09:21.229Z,65.93
2018-09-20T07:12:24.776Z,66.48
2018-09-20T07:15:28.472Z,66.62
2018-09-20T07:18:31.999Z,66.39
2018-09-20T07:21:35.572Z,67.37
2018-09-20T07:24:39.075Z,67.06
2018-09-20T07:27:42.675Z,66.51
2018-09-20T07:30:46.221Z,65.48
2018-09-20T07:33:49.804Z,64.35
2018-09-20T07:36:53.350Z,63.87
2018-09-20T07:39:56.825Z,63.34
2018-09-20T07:43:00.492Z,62.06
2018-09-20T07:46:04.076Z,62.23
2018-09-20T07:49:07.599Z,62.81
2018-09-20T07:52:11.127Z,61.74
2018-09-20T07:55:14.732Z,61.92
2018-09-20T07:58:18.296Z,61.17
2018-09-20T08:01:21.930Z,60.94
2018-09-20T08:04:25.585Z,60.44
2018-09-20T08:07:29.700Z,62.26
2018-09-20T08:10:33.212Z,61.06
2018-09-20T08:13:36.836Z,60.88
2018-09-20T08:16:40.374Z,60.25
2018-09-20T08:19:44.055Z,59.94
2018-09-20T08:22:47.607Z,59.31
2018-09-20T08:25:51.287Z,59.25
2018-09-20T08:28:54.835Z,59.07
2018-09-20T08:31:58.405Z,58.18
2018-09-20T08:35:01.981Z,57.53
2018-09-20T08:38:05.456Z,57.01
2018-09-20T08:41:09.216Z,56.69
2018-09-20T08:44:12.761Z,56.92
2018-09-20T08:47:16.326Z,56.21
2018-09-20T08:50:19.897Z,56.73
2018-09-20T08:53:23.615Z,56.15
2018-09-20T08:56:27.237Z,57.20
2018-09-20T08:59:30.852Z,56.45
2018-09-20T09:02:34.455Z,56.84
2018-09-20T09:05:37.955Z,56.18
2018-09-20T09:08:41.455Z,56.42
2018-09-20T09:11:45.104Z,56.42
2018-09-20T09:14:48.951Z,56.41
2018-09-20T09:17:52.461Z,56.21
2018-09-20T09:20:56.194Z,55.82
2018-09-20T09:23:59.736Z,55.35
2018-09-20T09:27:03.325Z,55.05
2018-09-20T09:30:07.300Z,55.34
2018-09-20T09:33:10.848Z,54.51
2018-09-20T09:36:14.454Z,53.60
2018-09-20T09:39:17.951Z,54.02
2018-09-20T09:42:21.460Z,53.86
2018-09-20T09:45:25.374Z,53.50
2018-09-20T09:48:28.935Z,54.21
2018-09-20T09:51:32.436Z,54.18
2018-09-20T09:54:36.147Z,54.46
2018-09-20T09:57:39.791Z,53.62
2018-09-20T10:00:43.381Z,53.73
2018-09-20T10:03:46.915Z,53.83
2018-09-20T10:06:50.571Z,52.54
2018-09-20T10:09:54.193Z,51.59
2018-09-20T10:12:58.596Z,50.32
2018-09-20T10:16:02.137Z,50.48
2018-09-20T10:19:05.874Z,49.48
2018-09-20T10:22:09.392Z,49.77
2018-09-20T10:25:12.985Z,49.21
2018-09-20T10:28:16.635Z,48.42
2018-09-20T10:31:20.159Z,48.55
2018-09-20T10:34:23.672Z,49.02
2018-09-20T10:37:27.361Z,48.00
2018-09-20T10:40:30.939Z,48.40
2018-09-20T10:43:34.532Z,48.07
2018-09-20T10:46:38.137Z,48.29
2018-09-20T10:49:41.786Z,47.74
2018-09-20T10:52:45.311Z,47.68
2018-09-20T10:55:48.896Z,47.28
2018-09-20T10:58:52.521Z,47.66
2018-09-20T11:01:56.196Z,47.94
2018-09-20T11:04:59.852Z,47.72
2018-09-20T11:08:03.537Z,48.20
2018-09-20T11:11:07.464Z,47.81
2018-09-20T11:14:10.933Z,46.61
2018-09-20T11:17:14.507Z,46.47
2018-09-20T11:20:18.267Z,47.06
2018-09-20T11:23:21.847Z,47.64
2018-09-20T11:26:25.393Z,47.46
2018-09-20T11:29:28.866Z,47.42
2018-09-20T11:32:32.481Z,47.02
2018-09-20T11:35:36.092Z,46.05
2018-09-20T11:38:39.622Z,45.07
2018-09-20T11:41:43.315Z,44.85
2018-09-20T11:44:47.001Z,44.84
2018-09-20T11:47:50.508Z,44.32
2018-09-20T11:50:54.217Z,43.66
2018-09-20T11:53:57.867Z,44.17
2018-09-20T11:57:01.681Z,44.39
2018-09-20T12:00:05.397Z,43.50
2018-09-20T12:03:09.183Z,43.82
2018-09-20T12:06:12.733Z,43.72
2018-09-20T12:09:16.301Z,44.11
2018-09-20T12:12:19.944Z,43.91
2018-09-20T12:15:23.585Z,43.53
2018-09-20T12:18:27.316Z,43.88
2018-09-20T12:21:31.005Z,43.47
2018-09-20T12:24:34.712Z,43.27
2018-09-20T12:27:38.251Z,43.84
2018-09-20T12:30:42.087Z,43.00
2018-09-20T12:33:45.628Z,43.69
2018-09-20T12:36:49.501Z,42.64
2018-09-20T12:39:53.058Z,43.00
2018-09-20T12:42:56.812Z,42.96
2018-09-20T12:46:00.401Z,43.29
2018-09-20T12:49:04.233Z,43.34
2018-09-20T12:52:07.768Z,43.18
2018-09-20T12:55:11.367Z,41.95
2018-09-20T12:58:15.661Z,42.43
2018-09-20T13:01:20.476Z,42.40
2018-09-20T13:04:24.519Z,42.82
2018-09-20T13:07:28.156Z,43.98
2018-09-20T13:10:31.906Z,43.84
2018-09-20T13:13:35.511Z,44.17
2018-09-20T13:16:39.120Z,43.19
2018-09-20T13:19:42.681Z,42.89
2018-09-20T13:22:46.300Z,42.48
2018-09-20T13:25:50.005Z,42.95
2018-09-20T13:28:53.665Z,43.21
2018-09-20T13:31:57.215Z,43.36
2018-09-20T13:35:00.836Z,42.78
2018-09-20T13:38:04.468Z,40.66
2018-09-20T13:41:08.090Z,41.10
2018-09-20T13:44:11.795Z,40.96
2018-09-20T13:47:15.682Z,41.02
2018-09-20T13:50:19.401Z,41.36
2018-09-20T13:53:23.021Z,41.99
2018-09-20T13:56:26.773Z,41.86
2018-09-20T13:59:30.449Z,41.77
2018-09-20T14:02:34.039Z,42.22
2018-09-20T14:05:37.566Z,42.73
2018-09-20T14:08:41.325Z,42.46
2018-09-20T14:11:44.990Z,41.19
2018-09-20T14:14:48.605Z,41.79
2018-09-20T14:17:52.272Z,41.66
2018-09-20T14:20:56.065Z,41.31
2018-09-20T14:25:16.401Z,40.22
2018-09-20T14:28:20.064Z,40.06
2018-09-20T14:31:24.060Z,40.14
2018-09-20T14:34:27.665Z,39.93
2018-09-20T14:37:31.258Z,40.67
2018-09-20T14:40:34.857Z,40.38
2018-09-20T14:43:38.358Z,39.59
2018-09-20T14:46:42.366Z,39.86
2018-09-20T14:49:46.617Z,39.41
2018-09-20T14:52:51.700Z,39.83
2018-09-20T14:55:55.950Z,40.38
2018-09-20T14:58:59.526Z,40.12
2018-09-20T15:02:03.381Z,39.89
2018-09-20T15:05:07.321Z,38.55
2018-09-20T15:08:10.905Z,40.44
2018-09-20T15:11:14.475Z,39.73
2018-09-20T15:14:18.091Z,40.12
2018-09-20T15:17:21.760Z,39.22
2018-09-20T15:20:25.381Z,39.64
2018-09-20T15:23:28.969Z,39.09
2018-09-20T15:26:32.591Z,40.33
2018-09-20T15:29:36.171Z,39.72
2018-09-20T15:32:39.859Z,39.52
2018-09-20T15:35:43.279Z,40.47
2018-09-20T15:38:46.950Z,39.34
2018-09-20T15:41:50.541Z,39.88
2018-09-20T15:44:54.296Z,40.01
2018-09-20T15:47:57.892Z,40.11
2018-09-20T15:51:01.461Z,39.68
2018-09-20T15:54:05.132Z,40.39
2018-09-20T15:57:08.733Z,40.34
2018-09-20T16:00:12.543Z,40.89
2018-09-20T16:03:16.148Z,40.73
2018-09-20T16:06:19.739Z,40.72
2018-09-20T16:09:23.308Z,41.66
2018-09-20T16:12:27.047Z,41.94
2018-09-20T16:15:30.625Z,41.50
2018-09-20T16:18:34.218Z,42.44
2018-09-20T16:21:37.771Z,42.20
2018-09-20T16:24:41.407Z,42.81
2018-09-20T16:27:45.003Z,43.24
2018-09-20T16:31:08.415Z,44.59
2018-09-20T16:34:23.814Z,43.67
2018-09-20T16:37:42.717Z,44.24
2018-09-20T16:40:47.560Z,44.27
2018-09-20T16:43:51.191Z,44.08
2018-09-20T16:46:54.773Z,44.88
2018-09-20T16:49:58.579Z,45.42
2018-09-20T16:53:02.134Z,45.69
2018-09-20T16:56:05.785Z,46.45
2018-09-20T16:59:09.462Z,47.38
2018-09-20T17:02:13.045Z,47.25
2018-09-20T17:05:16.713Z,48.09
2018-09-20T17:08:20.362Z,48.65
2018-09-20T17:11:23.967Z,49.44
2018-09-20T17:14:27.628Z,50.71
2018-09-20T17:17:31.795Z,50.84
2018-09-20T17:20:35.376Z,52.67
2018-09-20T17:23:39.246Z,54.23
2018-09-20T17:26:42.857Z,54.31
2018-09-20T17:29:46.596Z,54.44
2018-09-20T17:32:50.266Z,54.51
2018-09-20T17:35:54.664Z,55.58
2018-09-20T17:38:59.087Z,56.38
2018-09-20T17:42:03.175Z,56.30
2018-09-20T17:45:06.733Z,57.05
2018-09-20T17:48:10.365Z,57.52
2018-09-20T17:51:16.259Z,57.90
2018-09-20T17:54:20.355Z,58.42
2018-09-20T17:57:24.703Z,59.42
2018-09-20T18:00:28.460Z,60.65
2018-09-20T18:03:32.079Z,61.07
2018-09-20T18:06:36.977Z,61.02
2018-09-20T18:09:40.833Z,61.30
2018-09-20T18:12:44.526Z,61.89
2018-09-20T18:15:48.200Z,61.79
2018-09-20T18:18:52.285Z,61.24
2018-09-20T18:21:55.933Z,61.58
2018-09-20T18:24:59.708Z,61.17
2018-09-20T18:28:03.548Z,59.75
2018-09-20T18:31:07.181Z,60.14
2018-09-20T18:34:10.951Z,61.15
2018-09-20T18:37:14.642Z,59.46
2018-09-20T18:40:18.371Z,59.92
2018-09-20T18:43:22.055Z,60.70
2018-09-20T18:46:25.795Z,59.82
2018-09-20T18:49:29.492Z,60.98
2018-09-20T18:52:33.273Z,61.14
2018-09-20T18:55:37.092Z,61.38
2018-09-20T18:58:40.995Z,61.66
2018-09-20T19:01:44.716Z,61.67
2018-09-20T19:04:48.454Z,61.42
2018-09-20T19:07:52.056Z,61.44
2018-09-20T19:10:55.762Z,62.51
2018-09-20T19:13:59.671Z,62.51
2018-09-20T19:17:03.298Z,62.94
2018-09-20T19:20:07.786Z,62.84
2018-09-20T19:23:11.471Z,62.96
2018-09-20T19:26:17.097Z,63.01
2018-09-20T19:29:29.986Z,62.59
2018-09-20T19:32:33.586Z,63.03
2018-09-20T19:35:37.224Z,62.96
2018-09-20T19:38:41.690Z,63.45
2018-09-20T19:41:45.270Z,63.05
2018-09-20T19:44:48.888Z,63.33
2018-09-20T19:47:52.567Z,63.38
2018-09-20T19:50:56.372Z,63.47
2018-09-20T19:54:00.088Z,63.43
2018-09-20T19:57:04.241Z,61.01
2018-09-20T20:00:08.230Z,62.60
2018-09-20T20:03:11.890Z,63.62
2018-09-20T20:06:15.475Z,64.10
2018-09-20T20:09:19.105Z,64.34
2018-09-20T20:12:22.738Z,64.71
2018-09-20T20:15:26.411Z,63.94
2018-09-20T20:18:30.020Z,64.32
2018-09-20T20:21:34.616Z,63.74
2018-09-20T20:24:38.244Z,64.35
2018-09-20T20:27:41.809Z,65.93
2018-09-20T20:30:45.524Z,64.45
2018-09-20T20:33:49.231Z,65.02
2018-09-20T20:36:52.863Z,65.36
2018-09-20T20:39:58.745Z,64.61
2018-09-20T20:43:02.510Z,64.25
2018-09-20T20:46:06.275Z,65.08
2018-09-20T20:49:10.060Z,64.67
2018-09-20T20:52:13.815Z,64.70
2018-09-20T20:55:17.508Z,64.78
2018-09-20T20:58:21.176Z,65.41
2018-09-20T21:01:24.748Z,64.48
2018-09-20T21:04:28.320Z,65.02
2018-09-20T21:07:31.924Z,64.06
2018-09-20T21:10:35.625Z,63.82
2018-09-20T21:13:39.302Z,62.04
2018-09-20T21:16:42.880Z,63.29
2018-09-20T21:19:46.570Z,63.72
2018-09-20T21:22:50.156Z,65.14
2018-09-20T21:25:53.892Z,63.66
2018-09-20T21:28:57.467Z,63.33
2018-09-20T21:32:01.082Z,63.52
2018-09-20T21:35:04.669Z,63.59
2018-09-20T21:38:08.227Z,63.55
2018-09-20T21:41:11.887Z,61.95
2018-09-20T21:44:15.550Z,62.39
2018-09-20T21:47:19.117Z,62.37
2018-09-20T21:50:22.732Z,62.68
2018-09-20T21:53:26.466Z,63.12
2018-09-20T21:56:30.001Z,62.85
2018-09-20T21:59:33.643Z,63.03
2018-09-20T22:02:42.411Z,62.74
2018-09-20T22:05:46.162Z,60.94
2018-09-20T22:08:49.801Z,59.39
2018-09-20T22:11:53.436Z,59.31
2018-09-20T22:14:57.017Z,58.04
2018-09-20T22:18:00.537Z,57.04
2018-09-20T22:21:04.128Z,57.08
2018-09-20T22:24:07.656Z,57.18
2018-09-20T22:27:11.186Z,55.55
2018-09-20T22:30:15.061Z,56.92
2018-09-20T22:33:18.666Z,57.32
2018-09-20T22:36:22.308Z,56.67
2018-09-20T22:39:25.902Z,55.11
2018-09-20T22:42:30.813Z,56.70
2018-09-20T22:45:34.307Z,56.21
2018-09-20T22:48:38.041Z,55.24
2018-09-20T22:51:41.656Z,58.03
2018-09-20T22:54:45.209Z,55.28
2018-09-20T22:57:48.742Z,54.68
2018-09-20T23:00:52.328Z,57.62
2018-09-20T23:03:55.862Z,59.62
2018-09-20T23:06:59.497Z,58.58
2018-09-20T23:10:03.123Z,59.40
2018-09-20T23:13:06.904Z,60.37
2018-09-20T23:16:10.546Z,59.47
2018-09-20T23:19:14.143Z,59.04
2018-09-20T23:22:17.672Z,60.01
2018-09-20T23:25:21.263Z,60.47
2018-09-20T23:28:24.789Z,60.72
2018-09-20T23:31:28.481Z,60.40
2018-09-20T23:34:32.046Z,55.99
2018-09-20T23:37:35.599Z,55.61
2018-09-20T23:40:39.213Z,58.15
2018-09-20T23:43:42.739Z,59.49
2018-09-20T23:46:46.360Z,58.15
2018-09-20T23:49:49.939Z,58.04
2018-09-20T23:52:53.610Z,59.94
2018-09-20T23:55:57.319Z,58.87
2018-09-20T23:59:00.908Z,57.79
